Terminal Aerodrome Forecast
Issued by NWS

Home | Current Version | Previous Version | Text Only | Print | Product List | Glossary On
Versions: 1 2 3 4 5 6 7 8 9 10 11 12 13 14 15 16 17 18 19 20 21 22 23 24 25 26 27 28
000
FTUS43 KDLH 270500
TAFHIB
TAF
KHIB 270536Z 2706/2806 35006KT P6SM OVC011
     FM271000 34003KT 6SM BR OVC010
     FM271900 16004KT P6SM BKN015 BKN150=

USA.gov is the U.S. government's official web portal to all federal, state and local government web resources and services.